sensor_id;sensor_type;location;lat;lon;timestamp;pressure;altitude;pressure_sealevel;temperature;humidity
19210;BME280;9738;51.654;14.238;2022-12-24T00:01:13;99109.53;;;7.76;100.00
19210;BME280;9738;51.654;14.238;2022-12-24T00:03:39;99103.91;;;7.79;100.00
19210;BME280;9738;51.654;14.238;2022-12-24T00:06:17;99100.91;;;7.82;100.00
19210;BME280;9738;51.654;14.238;2022-12-24T00:08:43;99099.59;;;7.86;100.00
19210;BME280;9738;51.654;14.238;2022-12-24T00:11:09;99108.22;;;7.88;100.00
19210;BME280;9738;51.654;14.238;2022-12-24T00:13:35;99093.44;;;7.85;100.00
19210;BME280;9738;51.654;14.238;2022-12-24T00:16:01;99103.25;;;7.85;100.00
19210;BME280;9738;51.654;14.238;2022-12-24T00:18:27;99094.25;;;7.86;100.00
19210;BME280;9738;51.654;14.238;2022-12-24T00:20:53;99088.94;;;7.86;100.00
19210;BME280;9738;51.654;14.238;2022-12-24T00:23:20;99087.78;;;7.89;100.00
19210;BME280;9738;51.654;14.238;2022-12-24T00:25:46;99094.59;;;7.91;100.00
19210;BME280;9738;51.654;14.238;2022-12-24T00:28:13;99087.47;;;7.92;100.00
19210;BME280;9738;51.654;14.238;2022-12-24T00:30:41;99086.81;;;7.90;100.00
19210;BME280;9738;51.654;14.238;2022-12-24T00:33:07;99092.44;;;7.78;100.00
19210;BME280;9738;51.654;14.238;2022-12-24T00:35:34;99091.78;;;7.68;100.00
19210;BME280;9738;51.654;14.238;2022-12-24T00:38:01;99098.25;;;7.74;100.00
19210;BME280;9738;51.654;14.238;2022-12-24T00:40:29;99091.63;;;7.78;100.00
19210;BME280;9738;51.654;14.238;2022-12-24T00:42:55;99098.25;;;7.82;100.00
19210;BME280;9738;51.654;14.238;2022-12-24T00:45:22;99101.06;;;7.80;100.00
19210;BME280;9738;51.654;14.238;2022-12-24T00:47:48;99101.59;;;7.84;100.00
19210;BME280;9738;51.654;14.238;2022-12-24T00:50:13;99098.94;;;7.84;100.00
19210;BME280;9738;51.654;14.238;2022-12-24T00:52:40;99105.91;;;7.85;100.00
19210;BME280;9738;51.654;14.238;2022-12-24T00:55:06;99106.56;;;7.87;100.00
19210;BME280;9738;51.654;14.238;2022-12-24T00:57:32;99102.25;;;7.86;100.00
19210;BME280;9738;51.654;14.238;2022-12-24T00:59:59;99105.56;;;7.88;100.00
19210;BME280;9738;51.654;14.238;2022-12-24T01:02:24;99104.59;;;7.89;100.00
19210;BME280;9738;51.654;14.238;2022-12-24T01:04:50;99107.25;;;7.89;100.00
19210;BME280;9738;51.654;14.238;2022-12-24T01:07:37;99118.19;;;7.86;100.00
19210;BME280;9738;51.654;14.238;2022-12-24T01:10:04;99117.38;;;7.85;100.00
19210;BME280;9738;51.654;14.238;2022-12-24T01:12:31;99118.38;;;7.84;100.00
19210;BME280;9738;51.654;14.238;2022-12-24T01:14:57;99116.72;;;7.83;100.00
19210;BME280;9738;51.654;14.238;2022-12-24T01:17:23;99124.81;;;7.82;100.00
19210;BME280;9738;51.654;14.238;2022-12-24T01:19:49;99124.50;;;7.77;100.00
19210;BME280;9738;51.654;14.238;2022-12-24T01:22:15;99135.81;;;7.79;100.00
19210;BME280;9738;51.654;14.238;2022-12-24T01:24:41;99135.47;;;7.82;100.00
19210;BME280;9738;51.654;14.238;2022-12-24T01:27:07;99133.50;;;7.84;100.00
19210;BME280;9738;51.654;14.238;2022-12-24T01:29:37;99132.66;;;7.83;100.00
19210;BME280;9738;51.654;14.238;2022-12-24T01:32:03;99137.16;;;7.83;100.00
19210;BME280;9738;51.654;14.238;2022-12-24T01:34:29;99133.66;;;7.91;100.00
19210;BME280;9738;51.654;14.238;2022-12-24T01:36:55;99136.31;;;7.99;100.00
19210;BME280;9738;51.654;14.238;2022-12-24T01:39:21;99136.81;;;8.02;100.00
19210;BME280;9738;51.654;14.238;2022-12-24T01:41:47;99137.47;;;8.04;100.00
19210;BME280;9738;51.654;14.238;2022-12-24T01:44:33;99148.75;;;8.06;100.00
19210;BME280;9738;51.654;14.238;2022-12-24T01:49:36;99157.06;;;8.11;100.00
19210;BME280;9738;51.654;14.238;2022-12-24T01:52:11;99155.91;;;8.14;100.00
19210;BME280;9738;51.654;14.238;2022-12-24T01:54:54;99158.41;;;8.16;100.00
19210;BME280;9738;51.654;14.238;2022-12-24T01:57:27;99158.75;;;8.21;100.00
19210;BME280;9738;51.654;14.238;2022-12-24T01:59:57;99161.41;;;8.21;100.00
19210;BME280;9738;51.654;14.238;2022-12-24T02:02:26;99166.38;;;8.24;100.00
19210;BME280;9738;51.654;14.238;2022-12-24T02:04:59;99165.38;;;8.25;100.00
19210;BME280;9738;51.654;14.238;2022-12-24T02:07:27;99169.19;;;8.30;100.00
19210;BME280;9738;51.654;14.238;2022-12-24T02:09:56;99171.22;;;8.36;100.00
19210;BME280;9738;51.654;14.238;2022-12-24T02:12:24;99175.03;;;8.42;100.00
19210;BME280;9738;51.654;14.238;2022-12-24T02:14:51;99175.50;;;8.46;100.00
19210;BME280;9738;51.654;14.238;2022-12-24T02:17:30;99191.63;;;8.52;100.00
19210;BME280;9738;51.654;14.238;2022-12-24T02:23:33;99180.66;;;8.63;100.00
19210;BME280;9738;51.654;14.238;2022-12-24T02:34:39;99200.91;;;8.81;100.00
19210;BME280;9738;51.654;14.238;2022-12-24T02:37:21;99202.91;;;8.87;100.00
19210;BME280;9738;51.654;14.238;2022-12-24T02:40:20;99205.06;;;8.91;100.00
19210;BME280;9738;51.654;14.238;2022-12-24T02:42:50;99205.53;;;8.95;100.00
19210;BME280;9738;51.654;14.238;2022-12-24T02:45:21;99215.53;;;8.93;100.00
19210;BME280;9738;51.654;14.238;2022-12-24T02:47:49;99210.19;;;8.93;100.00
19210;BME280;9738;51.654;14.238;2022-12-24T02:50:16;99218.00;;;8.94;100.00
19210;BME280;9738;51.654;14.238;2022-12-24T02:52:44;99220.84;;;8.93;100.00
19210;BME280;9738;51.654;14.238;2022-12-24T02:55:17;99225.81;;;8.96;100.00
19210;BME280;9738;51.654;14.238;2022-12-24T03:00:22;99225.00;;;8.96;100.00
19210;BME280;9738;51.654;14.238;2022-12-24T03:02:54;99234.00;;;8.94;100.00
19210;BME280;9738;51.654;14.238;2022-12-24T03:05:40;99239.31;;;8.94;100.00
19210;BME280;9738;51.654;14.238;2022-12-24T03:08:16;99233.66;;;8.98;100.00
19210;BME280;9738;51.654;14.238;2022-12-24T03:10:56;99243.50;;;8.97;100.00
19210;BME280;9738;51.654;14.238;2022-12-24T03:13:25;99243.63;;;9.04;100.00
19210;BME280;9738;51.654;14.238;2022-12-24T03:15:52;99248.09;;;9.03;100.00
19210;BME280;9738;51.654;14.238;2022-12-24T03:18:25;99262.56;;;9.09;100.00
19210;BME280;9738;51.654;14.238;2022-12-24T03:21:02;99261.75;;;9.08;100.00
19210;BME280;9738;51.654;14.238;2022-12-24T03:23:30;99267.06;;;9.08;100.00
19210;BME280;9738;51.654;14.238;2022-12-24T03:25:59;99263.75;;;9.06;100.00
19210;BME280;9738;51.654;14.238;2022-12-24T03:28:27;99268.09;;;9.07;100.00
19210;BME280;9738;51.654;14.238;2022-12-24T03:30:53;99270.56;;;9.09;100.00
19210;BME280;9738;51.654;14.238;2022-12-24T03:33:20;99285.22;;;9.13;100.00
19210;BME280;9738;51.654;14.238;2022-12-24T03:35:46;99290.69;;;9.19;100.00
19210;BME280;9738;51.654;14.238;2022-12-24T03:38:11;99286.84;;;9.22;100.00
19210;BME280;9738;51.654;14.238;2022-12-24T03:40:38;99290.38;;;9.23;100.00
19210;BME280;9738;51.654;14.238;2022-12-24T03:43:03;99292.16;;;9.22;100.00
19210;BME280;9738;51.654;14.238;2022-12-24T03:45:29;99303.84;;;9.21;100.00
19210;BME280;9738;51.654;14.238;2022-12-24T03:47:55;99310.34;;;9.18;100.00
19210;BME280;9738;51.654;14.238;2022-12-24T03:50:21;99303.00;;;9.20;100.00
19210;BME280;9738;51.654;14.238;2022-12-24T03:52:47;99306.03;;;9.17;100.00
19210;BME280;9738;51.654;14.238;2022-12-24T03:55:13;99308.00;;;9.15;100.00
19210;BME280;9738;51.654;14.238;2022-12-24T03:57:39;99320.34;;;9.08;100.00
19210;BME280;9738;51.654;14.238;2022-12-24T04:00:05;99321.03;;;9.10;100.00
19210;BME280;9738;51.654;14.238;2022-12-24T04:02:33;99334.50;;;9.09;100.00
19210;BME280;9738;51.654;14.238;2022-12-24T04:04:58;99329.34;;;9.07;100.00
19210;BME280;9738;51.654;14.238;2022-12-24T04:07:24;99322.34;;;9.06;100.00
19210;BME280;9738;51.654;14.238;2022-12-24T04:09:51;99337.00;;;9.02;100.00
19210;BME280;9738;51.654;14.238;2022-12-24T04:12:16;99345.34;;;8.99;100.00
19210;BME280;9738;51.654;14.238;2022-12-24T04:14:42;99347.34;;;8.97;100.00
19210;BME280;9738;51.654;14.238;2022-12-24T04:17:08;99356.00;;;8.99;100.00
19210;BME280;9738;51.654;14.238;2022-12-24T04:19:34;99352.16;;;9.02;100.00
19210;BME280;9738;51.654;14.238;2022-12-24T04:22:00;99362.63;;;9.03;100.00
19210;BME280;9738;51.654;14.238;2022-12-24T04:24:26;99358.00;;;9.05;100.00
19210;BME280;9738;51.654;14.238;2022-12-24T04:26:52;99361.47;;;9.06;100.00
19210;BME280;9738;51.654;14.238;2022-12-24T04:29:18;99366.31;;;9.10;100.00
19210;BME280;9738;51.654;14.238;2022-12-24T04:31:44;99366.31;;;9.10;100.00
19210;BME280;9738;51.654;14.238;2022-12-24T04:34:10;99357.47;;;9.02;100.00
19210;BME280;9738;51.654;14.238;2022-12-24T04:36:35;99363.66;;;8.94;100.00
19210;BME280;9738;51.654;14.238;2022-12-24T04:39:02;99377.31;;;8.91;100.00
19210;BME280;9738;51.654;14.238;2022-12-24T04:41:28;99387.09;;;8.90;100.00
19210;BME280;9738;51.654;14.238;2022-12-24T04:43:54;99390.44;;;8.92;100.00
19210;BME280;9738;51.654;14.238;2022-12-24T04:46:23;99384.63;;;8.97;100.00
19210;BME280;9738;51.654;14.238;2022-12-24T04:48:51;99394.94;;;8.92;100.00
19210;BME280;9738;51.654;14.238;2022-12-24T04:51:17;99387.09;;;8.90;100.00
19210;BME280;9738;51.654;14.238;2022-12-24T04:53:44;99400.41;;;8.90;100.00
19210;BME280;9738;51.654;14.238;2022-12-24T04:56:18;99412.06;;;8.89;100.00
19210;BME280;9738;51.654;14.238;2022-12-24T04:58:45;99409.75;;;8.86;100.00
19210;BME280;9738;51.654;14.238;2022-12-24T05:01:14;99412.06;;;8.81;100.00
19210;BME280;9738;51.654;14.238;2022-12-24T05:03:40;99417.22;;;8.83;100.00
19210;BME280;9738;51.654;14.238;2022-12-24T05:06:09;99417.22;;;8.83;100.00
19210;BME280;9738;51.654;14.238;2022-12-24T05:08:37;99411.06;;;8.74;100.00
19210;BME280;9738;51.654;14.238;2022-12-24T05:11:03;99423.72;;;8.72;100.00
19210;BME280;9738;51.654;14.238;2022-12-24T05:13:30;99432.69;;;8.71;100.00
19210;BME280;9738;51.654;14.238;2022-12-24T05:15:56;99440.19;;;8.68;100.00
19210;BME280;9738;51.654;14.238;2022-12-24T05:18:22;99443.97;;;8.65;100.00
19210;BME280;9738;51.654;14.238;2022-12-24T05:20:48;99445.97;;;8.63;100.00
19210;BME280;9738;51.654;14.238;2022-12-24T05:23:16;99449.13;;;8.58;100.00
19210;BME280;9738;51.654;14.238;2022-12-24T05:26:02;99457.63;;;8.54;100.00
19210;BME280;9738;51.654;14.238;2022-12-24T05:28:48;99448.09;;;8.51;100.00
19210;BME280;9738;51.654;14.238;2022-12-24T05:31:15;99462.22;;;8.44;100.00
19210;BME280;9738;51.654;14.238;2022-12-24T05:33:41;99454.88;;;8.37;100.00
19210;BME280;9738;51.654;14.238;2022-12-24T05:36:07;99471.03;;;8.36;100.00
19210;BME280;9738;51.654;14.238;2022-12-24T05:38:33;99474.81;;;8.33;100.00
19210;BME280;9738;51.654;14.238;2022-12-24T05:40:59;99482.09;;;8.31;100.00
19210;BME280;9738;51.654;14.238;2022-12-24T05:43:25;99483.28;;;8.29;100.00
19210;BME280;9738;51.654;14.238;2022-12-24T05:45:59;99486.09;;;8.27;100.00
19210;BME280;9738;51.654;14.238;2022-12-24T05:48:26;99487.56;;;8.22;100.00
19210;BME280;9738;51.654;14.238;2022-12-24T05:50:53;99503.81;;;8.19;100.00
19210;BME280;9738;51.654;14.238;2022-12-24T05:53:19;99507.66;;;8.16;100.00
19210;BME280;9738;51.654;14.238;2022-12-24T05:55:44;99516.09;;;8.11;100.00
19210;BME280;9738;51.654;14.238;2022-12-24T05:58:11;99517.25;;;8.09;100.00
19210;BME280;9738;51.654;14.238;2022-12-24T06:00:37;99519.38;;;8.05;100.00
19210;BME280;9738;51.654;14.238;2022-12-24T06:03:02;99517.06;;;8.02;100.00
19210;BME280;9738;51.654;14.238;2022-12-24T06:05:29;99512.69;;;8.01;100.00
19210;BME280;9738;51.654;14.238;2022-12-24T06:07:54;99525.34;;;7.99;100.00
19210;BME280;9738;51.654;14.238;2022-12-24T06:10:20;99525.66;;;7.96;100.00
19210;BME280;9738;51.654;14.238;2022-12-24T06:12:47;99529.31;;;7.95;100.00
19210;BME280;9738;51.654;14.238;2022-12-24T06:15:13;99539.56;;;7.90;100.00
19210;BME280;9738;51.654;14.238;2022-12-24T06:17:39;99516.94;;;7.86;100.00
19210;BME280;9738;51.654;14.238;2022-12-24T06:20:06;99535.34;;;7.79;100.00
19210;BME280;9738;51.654;14.238;2022-12-24T06:22:31;99539.81;;;7.79;100.00
19210;BME280;9738;51.654;14.238;2022-12-24T06:24:57;99550.75;;;7.76;100.00
19210;BME280;9738;51.654;14.238;2022-12-24T06:27:23;99560.56;;;7.75;100.00
19210;BME280;9738;51.654;14.238;2022-12-24T06:29:49;99560.03;;;7.72;100.00
19210;BME280;9738;51.654;14.238;2022-12-24T06:32:15;99571.66;;;7.71;100.00
19210;BME280;9738;51.654;14.238;2022-12-24T06:34:41;99571.66;;;7.71;100.00
19210;BME280;9738;51.654;14.238;2022-12-24T06:37:07;99581.47;;;7.70;100.00
19210;BME280;9738;51.654;14.238;2022-12-24T06:39:33;99579.44;;;7.64;100.00
19210;BME280;9738;51.654;14.238;2022-12-24T06:41:59;99585.88;;;7.62;100.00
19210;BME280;9738;51.654;14.238;2022-12-24T06:44:25;99585.88;;;7.62;100.00
19210;BME280;9738;51.654;14.238;2022-12-24T06:46:51;99596.66;;;7.60;100.00
19210;BME280;9738;51.654;14.238;2022-12-24T06:49:17;99586.78;;;7.52;100.00
19210;BME280;9738;51.654;14.238;2022-12-24T06:51:43;99601.59;;;7.55;100.00
19210;BME280;9738;51.654;14.238;2022-12-24T06:54:09;99606.22;;;7.53;100.00
19210;BME280;9738;51.654;14.238;2022-12-24T06:56:35;99611.38;;;7.54;100.00
19210;BME280;9738;51.654;14.238;2022-12-24T06:59:01;99607.72;;;7.55;100.00
19210;BME280;9738;51.654;14.238;2022-12-24T07:01:26;99621.34;;;7.52;100.00
19210;BME280;9738;51.654;14.238;2022-12-24T07:03:53;99620.34;;;7.53;100.00
19210;BME280;9738;51.654;14.238;2022-12-24T07:06:30;99622.56;;;7.58;100.00
19210;BME280;9738;51.654;14.238;2022-12-24T07:08:56;99627.03;;;7.57;100.00
19210;BME280;9738;51.654;14.238;2022-12-24T07:11:23;99628.69;;;7.58;100.00
19210;BME280;9738;51.654;14.238;2022-12-24T07:13:49;99623.06;;;7.62;100.00
19210;BME280;9738;51.654;14.238;2022-12-24T07:16:16;99626.44;;;7.64;100.00
19210;BME280;9738;51.654;14.238;2022-12-24T07:18:41;99640.06;;;7.69;100.00
19210;BME280;9738;51.654;14.238;2022-12-24T07:21:07;99638.78;;;7.73;100.00
19210;BME280;9738;51.654;14.238;2022-12-24T07:23:34;99649.25;;;7.74;100.00
19210;BME280;9738;51.654;14.238;2022-12-24T07:26:00;99654.28;;;7.77;100.00
19210;BME280;9738;51.654;14.238;2022-12-24T07:28:27;99662.28;;;7.77;100.00
19210;BME280;9738;51.654;14.238;2022-12-24T07:30:57;99672.75;;;7.79;100.00
19210;BME280;9738;51.654;14.238;2022-12-24T07:33:24;99668.81;;;7.83;100.00
19210;BME280;9738;51.654;14.238;2022-12-24T07:36:02;99677.44;;;7.85;100.00
19210;BME280;9738;51.654;14.238;2022-12-24T07:38:29;99667.66;;;7.85;100.00
19210;BME280;9738;51.654;14.238;2022-12-24T07:40:55;99677.84;;;7.90;100.00
19210;BME280;9738;51.654;14.238;2022-12-24T07:43:22;99672.50;;;7.90;100.00
19210;BME280;9738;51.654;14.238;2022-12-24T07:45:49;99681.00;;;7.94;100.00
19210;BME280;9738;51.654;14.238;2022-12-24T07:48:15;99679.03;;;7.96;100.00
19210;BME280;9738;51.654;14.238;2022-12-24T07:50:41;99689.38;;;7.99;100.00
19210;BME280;9738;51.654;14.238;2022-12-24T07:53:07;99690.19;;;7.99;100.00
19210;BME280;9738;51.654;14.238;2022-12-24T07:55:34;99703.88;;;8.04;100.00
19210;BME280;9738;51.654;14.238;2022-12-24T07:58:00;99700.38;;;8.04;100.00
19210;BME280;9738;51.654;14.238;2022-12-24T08:00:26;99706.22;;;8.07;100.00
19210;BME280;9738;51.654;14.238;2022-12-24T08:02:52;99696.56;;;8.06;100.00
19210;BME280;9738;51.654;14.238;2022-12-24T08:05:18;99715.72;;;8.10;100.00
19210;BME280;9738;51.654;14.238;2022-12-24T08:07:44;99711.25;;;8.10;100.00
19210;BME280;9738;51.654;14.238;2022-12-24T08:10:10;99708.25;;;8.13;100.00
19210;BME280;9738;51.654;14.238;2022-12-24T08:12:36;99714.13;;;8.17;100.00
19210;BME280;9738;51.654;14.238;2022-12-24T08:15:02;99704.16;;;8.19;100.00
19210;BME280;9738;51.654;14.238;2022-12-24T08:17:28;99711.13;;;8.20;100.00
19210;BME280;9738;51.654;14.238;2022-12-24T08:19:54;99716.69;;;8.27;100.00
19210;BME280;9738;51.654;14.238;2022-12-24T08:22:20;99704.25;;;8.27;100.00
19210;BME280;9738;51.654;14.238;2022-12-24T08:24:46;99718.22;;;8.29;100.00
19210;BME280;9738;51.654;14.238;2022-12-24T08:27:11;99722.00;;;8.27;100.00
19210;BME280;9738;51.654;14.238;2022-12-24T08:29:38;99725.44;;;8.37;100.00
19210;BME280;9738;51.654;14.238;2022-12-24T08:32:03;99724.03;;;8.33;100.00
19210;BME280;9738;51.654;14.238;2022-12-24T08:34:29;99730.78;;;8.37;100.00
19210;BME280;9738;51.654;14.238;2022-12-24T08:36:55;99731.06;;;8.34;100.00
19210;BME280;9738;51.654;14.238;2022-12-24T08:39:21;99731.19;;;8.32;100.00
19210;BME280;9738;51.654;14.238;2022-12-24T08:41:47;99738.91;;;8.35;100.00
19210;BME280;9738;51.654;14.238;2022-12-24T08:44:13;99744.75;;;8.39;100.00
19210;BME280;9738;51.654;14.238;2022-12-24T08:46:39;99743.91;;;8.38;100.00
19210;BME280;9738;51.654;14.238;2022-12-24T08:49:05;99750.91;;;8.39;100.00
19210;BME280;9738;51.654;14.238;2022-12-24T08:51:31;99750.91;;;8.39;100.00
19210;BME280;9738;51.654;14.238;2022-12-24T08:53:57;99760.72;;;8.39;100.00
19210;BME280;9738;51.654;14.238;2022-12-24T08:56:22;99758.88;;;8.39;100.00
19210;BME280;9738;51.654;14.238;2022-12-24T08:58:49;99763.75;;;8.44;100.00
19210;BME280;9738;51.654;14.238;2022-12-24T09:01:16;99770.44;;;8.48;100.00
19210;BME280;9738;51.654;14.238;2022-12-24T09:03:43;99773.88;;;8.41;100.00
19210;BME280;9738;51.654;14.238;2022-12-24T09:06:09;99787.88;;;8.43;100.00
19210;BME280;9738;51.654;14.238;2022-12-24T09:08:35;99795.53;;;8.46;100.00
19210;BME280;9738;51.654;14.238;2022-12-24T09:11:11;99792.34;;;8.42;100.00
19210;BME280;9738;51.654;14.238;2022-12-24T09:13:38;99799.34;;;8.43;100.00
19210;BME280;9738;51.654;14.238;2022-12-24T09:16:04;99818.13;;;8.42;100.00
19210;BME280;9738;51.654;14.238;2022-12-24T09:18:30;99808.31;;;8.42;100.00
19210;BME280;9738;51.654;14.238;2022-12-24T09:21:01;99816.97;;;8.44;100.00
19210;BME280;9738;51.654;14.238;2022-12-24T09:23:28;99824.69;;;8.47;100.00
19210;BME280;9738;51.654;14.238;2022-12-24T09:25:53;99827.19;;;8.49;100.00
19210;BME280;9738;51.654;14.238;2022-12-24T09:28:20;99835.00;;;8.50;100.00
19210;BME280;9738;51.654;14.238;2022-12-24T09:30:57;99844.81;;;8.50;100.00
19210;BME280;9738;51.654;14.238;2022-12-24T09:33:24;99852.78;;;8.50;100.00
19210;BME280;9738;51.654;14.238;2022-12-24T09:35:51;99855.28;;;8.51;100.00
19210;BME280;9738;51.654;14.238;2022-12-24T09:38:18;99854.41;;;8.60;100.00
19210;BME280;9738;51.654;14.238;2022-12-24T09:40:44;99864.00;;;8.53;100.00
19210;BME280;9738;51.654;14.238;2022-12-24T09:43:15;99866.25;;;8.48;100.00
19210;BME280;9738;51.654;14.238;2022-12-24T09:45:48;99860.38;;;8.45;100.00
19210;BME280;9738;51.654;14.238;2022-12-24T09:48:21;99851.19;;;8.39;100.00
19210;BME280;9738;51.654;14.238;2022-12-24T09:51:02;99857.34;;;8.39;100.00
19210;BME280;9738;51.654;14.238;2022-12-24T09:53:34;99872.78;;;8.36;100.00
19210;BME280;9738;51.654;14.238;2022-12-24T09:56:08;99862.66;;;8.39;100.00
19210;BME280;9738;51.654;14.238;2022-12-24T09:58:40;99870.53;;;8.41;100.00
19210;BME280;9738;51.654;14.238;2022-12-24T10:01:11;99876.06;;;8.48;100.00
19210;BME280;9738;51.654;14.238;2022-12-24T10:03:38;99879.13;;;8.53;100.00
19210;BME280;9738;51.654;14.238;2022-12-24T10:06:15;99880.19;;;8.60;100.00
19210;BME280;9738;51.654;14.238;2022-12-24T10:14:44;99877.25;;;8.71;100.00
19210;BME280;9738;51.654;14.238;2022-12-24T10:17:40;99874.38;;;8.82;100.00
19210;BME280;9738;51.654;14.238;2022-12-24T10:25:36;99891.38;;;9.07;100.00
19210;BME280;9738;51.654;14.238;2022-12-24T10:28:13;99891.38;;;9.07;100.00
19210;BME280;9738;51.654;14.238;2022-12-24T10:30:41;99887.06;;;9.06;100.00
19210;BME280;9738;51.654;14.238;2022-12-24T10:33:18;99898.47;;;9.16;100.00
19210;BME280;9738;51.654;14.238;2022-12-24T10:35:49;99906.56;;;9.33;100.00
19210;BME280;9738;51.654;14.238;2022-12-24T10:38:17;99915.31;;;9.43;100.00
19210;BME280;9738;51.654;14.238;2022-12-24T10:40:47;99918.69;;;9.53;100.00
19210;BME280;9738;51.654;14.238;2022-12-24T10:43:17;99921.34;;;9.53;100.00
19210;BME280;9738;51.654;14.238;2022-12-24T10:45:47;99934.31;;;9.48;100.00
19210;BME280;9738;51.654;14.238;2022-12-24T10:48:24;99932.78;;;9.45;100.00
19210;BME280;9738;51.654;14.238;2022-12-24T10:51:02;99939.28;;;9.43;100.00
19210;BME280;9738;51.654;14.238;2022-12-24T10:54:14;99950.94;;;9.42;100.00
19210;BME280;9738;51.654;14.238;2022-12-24T10:56:45;99948.94;;;9.44;100.00
19210;BME280;9738;51.654;14.238;2022-12-24T10:59:24;99951.16;;;9.48;100.00
19210;BME280;9738;51.654;14.238;2022-12-24T11:01:51;99951.66;;;9.52;100.00
19210;BME280;9738;51.654;14.238;2022-12-24T11:04:20;99950.63;;;9.45;100.00
19210;BME280;9738;51.654;14.238;2022-12-24T11:07:01;99961.13;;;9.46;100.00
19210;BME280;9738;51.654;14.238;2022-12-24T11:09:38;99967.16;;;9.48;100.00
19210;BME280;9738;51.654;14.238;2022-12-24T11:12:26;99975.44;;;9.45;100.00
19210;BME280;9738;51.654;14.238;2022-12-24T11:15:01;99971.94;;;9.45;100.00
19210;BME280;9738;51.654;14.238;2022-12-24T11:17:28;99976.81;;;9.50;100.00
19210;BME280;9738;51.654;14.238;2022-12-24T11:19:54;99987.09;;;9.44;100.00
19210;BME280;9738;51.654;14.238;2022-12-24T11:22:24;99988.78;;;9.45;100.00
19210;BME280;9738;51.654;14.238;2022-12-24T11:25:06;99996.47;;;9.48;100.00
19210;BME280;9738;51.654;14.238;2022-12-24T11:27:46;100004.97;;;9.52;100.00
19210;BME280;9738;51.654;14.238;2022-12-24T11:32:41;100004.97;;;9.52;100.00
19210;BME280;9738;51.654;14.238;2022-12-24T11:35:20;100010.63;;;9.49;100.00
19210;BME280;9738;51.654;14.238;2022-12-24T11:40:39;100006.66;;;9.53;100.00
19210;BME280;9738;51.654;14.238;2022-12-24T11:43:06;100011.16;;;9.53;100.00
19210;BME280;9738;51.654;14.238;2022-12-24T11:45:38;100004.69;;;9.55;100.00
19210;BME280;9738;51.654;14.238;2022-12-24T11:48:30;100010.38;;;9.60;100.00
19210;BME280;9738;51.654;14.238;2022-12-24T11:51:04;100010.22;;;9.62;100.00
19210;BME280;9738;51.654;14.238;2022-12-24T11:53:35;100011.44;;;9.67;100.00
19210;BME280;9738;51.654;14.238;2022-12-24T11:56:08;100015.78;;;9.68;100.00
19210;BME280;9738;51.654;14.238;2022-12-24T11:58:45;100020.78;;;9.71;100.00
19210;BME280;9738;51.654;14.238;2022-12-24T12:01:34;100026.34;;;9.78;100.00
19210;BME280;9738;51.654;14.238;2022-12-24T12:06:53;100023.88;;;9.85;100.00
19210;BME280;9738;51.654;14.238;2022-12-24T12:09:26;100029.59;;;9.90;100.00
19210;BME280;9738;51.654;14.238;2022-12-24T12:11:58;100036.28;;;9.94;100.00
19210;BME280;9738;51.654;14.238;2022-12-24T12:14:33;100040.63;;;9.95;100.00
19210;BME280;9738;51.654;14.238;2022-12-24T12:20:02;100041.84;;;10.00;100.00
19210;BME280;9738;51.654;14.238;2022-12-24T12:22:38;100044.66;;;9.99;100.00
19210;BME280;9738;51.654;14.238;2022-12-24T12:25:27;100054.47;;;9.98;100.00
19210;BME280;9738;51.654;14.238;2022-12-24T12:27:56;100049.00;;;10.00;100.00
19210;BME280;9738;51.654;14.238;2022-12-24T12:30:23;100056.16;;;9.99;100.00
19210;BME280;9738;51.654;14.238;2022-12-24T12:33:12;100051.34;;;10.03;100.00
19210;BME280;9738;51.654;14.238;2022-12-24T12:35:42;100057.34;;;10.05;100.00
19210;BME280;9738;51.654;14.238;2022-12-24T12:38:12;100058.84;;;9.99;100.00
19210;BME280;9738;51.654;14.238;2022-12-24T12:40:59;100053.34;;;10.01;100.00
19210;BME280;9738;51.654;14.238;2022-12-24T12:46:34;100056.94;;;9.92;100.00
19210;BME280;9738;51.654;14.238;2022-12-24T12:52:21;100061.75;;;9.88;100.00
19210;BME280;9738;51.654;14.238;2022-12-24T12:58:00;100069.66;;;9.98;100.00
19210;BME280;9738;51.654;14.238;2022-12-24T13:00:32;100071.47;;;9.97;100.00
19210;BME280;9738;51.654;14.238;2022-12-24T13:06:18;100074.91;;;10.08;100.00
19210;BME280;9738;51.654;14.238;2022-12-24T13:18:17;100089.31;;;9.97;100.00
19210;BME280;9738;51.654;14.238;2022-12-24T13:20:49;100080.94;;;9.92;100.00
19210;BME280;9738;51.654;14.238;2022-12-24T13:23:21;100087.28;;;9.91;100.00
19210;BME280;9738;51.654;14.238;2022-12-24T13:25:50;100088.94;;;9.92;100.00
19210;BME280;9738;51.654;14.238;2022-12-24T13:36:07;100093.72;;;10.06;100.00
19210;BME280;9738;51.654;14.238;2022-12-24T13:39:03;100100.19;;;10.03;100.00
19210;BME280;9738;51.654;14.238;2022-12-24T13:49:32;100113.78;;;9.92;100.00
19210;BME280;9738;51.654;14.238;2022-12-24T13:54:42;100117.78;;;9.88;100.00
19210;BME280;9738;51.654;14.238;2022-12-24T13:57:30;100123.41;;;9.85;100.00
19210;BME280;9738;51.654;14.238;2022-12-24T14:00:00;100117.00;;;9.78;100.00
19210;BME280;9738;51.654;14.238;2022-12-24T14:02:33;100135.84;;;9.77;100.00
19210;BME280;9738;51.654;14.238;2022-12-24T14:05:04;100135.22;;;9.83;100.00
19210;BME280;9738;51.654;14.238;2022-12-24T14:07:33;100147.72;;;9.82;100.00
19210;BME280;9738;51.654;14.238;2022-12-24T14:10:01;100143.22;;;9.83;100.00
19210;BME280;9738;51.654;14.238;2022-12-24T14:14:56;100144.22;;;9.82;100.00
19210;BME280;9738;51.654;14.238;2022-12-24T14:17:26;100140.56;;;9.83;100.00
19210;BME280;9738;51.654;14.238;2022-12-24T14:19:56;100151.91;;;9.85;100.00
19210;BME280;9738;51.654;14.238;2022-12-24T14:22:30;100143.91;;;9.85;100.00
19210;BME280;9738;51.654;14.238;2022-12-24T14:25:02;100149.25;;;9.85;100.00
19210;BME280;9738;51.654;14.238;2022-12-24T14:32:42;100158.69;;;9.97;100.00
19210;BME280;9738;51.654;14.238;2022-12-24T14:35:21;100161.66;;;9.94;100.00
19210;BME280;9738;51.654;14.238;2022-12-24T14:37:51;100162.28;;;9.88;100.00